sensor_id;sensor_type;location;lat;lon;timestamp;P1;durP1;ratioP1;P2;durP2;ratioP2
72920;SDS011;61064;51.654;5.476;2023-05-07T00:01:49;11.00;;;6.30;;
72920;SDS011;61064;51.654;5.476;2023-05-07T00:04:14;11.17;;;5.90;;
72920;SDS011;61064;51.654;5.476;2023-05-07T00:06:40;8.85;;;5.47;;
72920;SDS011;61064;51.654;5.476;2023-05-07T00:09:05;10.00;;;5.30;;
72920;SDS011;61064;51.654;5.476;2023-05-07T00:11:31;11.60;;;5.47;;
72920;SDS011;61064;51.654;5.476;2023-05-07T00:13:57;11.00;;;5.23;;
72920;SDS011;61064;51.654;5.476;2023-05-07T00:16:22;8.47;;;5.37;;
72920;SDS011;61064;51.654;5.476;2023-05-07T00:18:47;9.43;;;5.30;;
72920;SDS011;61064;51.654;5.476;2023-05-07T00:21:13;10.48;;;5.70;;
72920;SDS011;61064;51.654;5.476;2023-05-07T00:23:38;10.93;;;5.57;;
72920;SDS011;61064;51.654;5.476;2023-05-07T00:26:04;9.80;;;5.40;;
72920;SDS011;61064;51.654;5.476;2023-05-07T00:28:29;11.50;;;5.80;;
72920;SDS011;61064;51.654;5.476;2023-05-07T00:30:55;9.18;;;5.38;;
72920;SDS011;61064;51.654;5.476;2023-05-07T00:33:23;8.73;;;4.97;;
72920;SDS011;61064;51.654;5.476;2023-05-07T00:35:51;11.05;;;5.78;;
72920;SDS011;61064;51.654;5.476;2023-05-07T00:38:16;9.33;;;5.23;;
72920;SDS011;61064;51.654;5.476;2023-05-07T00:40:42;8.88;;;5.10;;
72920;SDS011;61064;51.654;5.476;2023-05-07T00:43:07;8.90;;;5.50;;
72920;SDS011;61064;51.654;5.476;2023-05-07T00:45:33;9.27;;;5.17;;
72920;SDS011;61064;51.654;5.476;2023-05-07T00:48:00;9.02;;;5.50;;
72920;SDS011;61064;51.654;5.476;2023-05-07T00:50:27;10.93;;;6.22;;
72920;SDS011;61064;51.654;5.476;2023-05-07T00:52:53;13.43;;;7.57;;
72920;SDS011;61064;51.654;5.476;2023-05-07T00:55:19;14.98;;;7.50;;
72920;SDS011;61064;51.654;5.476;2023-05-07T00:57:45;12.18;;;7.57;;
72920;SDS011;61064;51.654;5.476;2023-05-07T01:00:11;16.57;;;7.40;;
72920;SDS011;61064;51.654;5.476;2023-05-07T01:02:40;11.13;;;6.88;;
72920;SDS011;61064;51.654;5.476;2023-05-07T01:05:07;10.77;;;6.38;;
72920;SDS011;61064;51.654;5.476;2023-05-07T01:07:36;12.27;;;6.88;;
72920;SDS011;61064;51.654;5.476;2023-05-07T01:10:04;12.00;;;6.87;;
72920;SDS011;61064;51.654;5.476;2023-05-07T01:12:30;10.65;;;6.20;;
72920;SDS011;61064;51.654;5.476;2023-05-07T01:14:56;11.23;;;6.33;;
72920;SDS011;61064;51.654;5.476;2023-05-07T01:17:21;9.70;;;6.38;;
72920;SDS011;61064;51.654;5.476;2023-05-07T01:19:47;14.05;;;7.38;;
72920;SDS011;61064;51.654;5.476;2023-05-07T01:22:13;12.30;;;7.63;;
72920;SDS011;61064;51.654;5.476;2023-05-07T01:24:41;11.80;;;7.50;;
72920;SDS011;61064;51.654;5.476;2023-05-07T01:27:06;11.77;;;6.88;;
72920;SDS011;61064;51.654;5.476;2023-05-07T01:29:32;10.77;;;6.40;;
72920;SDS011;61064;51.654;5.476;2023-05-07T01:31:58;12.57;;;6.53;;
72920;SDS011;61064;51.654;5.476;2023-05-07T01:34:25;13.25;;;6.80;;
72920;SDS011;61064;51.654;5.476;2023-05-07T01:36:53;12.38;;;7.25;;
72920;SDS011;61064;51.654;5.476;2023-05-07T01:39:20;14.55;;;7.50;;
72920;SDS011;61064;51.654;5.476;2023-05-07T01:41:49;12.63;;;7.07;;
72920;SDS011;61064;51.654;5.476;2023-05-07T01:44:14;12.43;;;7.27;;
72920;SDS011;61064;51.654;5.476;2023-05-07T01:46:41;12.43;;;7.03;;
72920;SDS011;61064;51.654;5.476;2023-05-07T01:49:07;12.33;;;6.87;;
72920;SDS011;61064;51.654;5.476;2023-05-07T01:51:32;11.93;;;7.05;;
72920;SDS011;61064;51.654;5.476;2023-05-07T01:53:59;10.63;;;6.80;;
72920;SDS011;61064;51.654;5.476;2023-05-07T01:56:25;11.40;;;7.60;;
72920;SDS011;61064;51.654;5.476;2023-05-07T01:58:50;12.63;;;7.57;;
72920;SDS011;61064;51.654;5.476;2023-05-07T02:01:16;12.38;;;7.75;;
72920;SDS011;61064;51.654;5.476;2023-05-07T02:03:42;12.80;;;7.97;;
72920;SDS011;61064;51.654;5.476;2023-05-07T02:06:07;14.13;;;7.93;;
72920;SDS011;61064;51.654;5.476;2023-05-07T02:08:32;13.05;;;7.68;;
72920;SDS011;61064;51.654;5.476;2023-05-07T02:10:58;16.03;;;8.07;;
72920;SDS011;61064;51.654;5.476;2023-05-07T02:13:23;14.43;;;8.43;;
72920;SDS011;61064;51.654;5.476;2023-05-07T02:15:52;14.68;;;8.25;;
72920;SDS011;61064;51.654;5.476;2023-05-07T02:18:18;15.60;;;8.65;;
72920;SDS011;61064;51.654;5.476;2023-05-07T02:20:43;14.87;;;8.77;;
72920;SDS011;61064;51.654;5.476;2023-05-07T02:23:09;15.17;;;8.77;;
72920;SDS011;61064;51.654;5.476;2023-05-07T02:25:34;13.63;;;9.00;;
72920;SDS011;61064;51.654;5.476;2023-05-07T02:28:00;15.93;;;8.77;;
72920;SDS011;61064;51.654;5.476;2023-05-07T02:30:25;15.67;;;9.10;;
72920;SDS011;61064;51.654;5.476;2023-05-07T02:32:50;14.73;;;9.23;;
72920;SDS011;61064;51.654;5.476;2023-05-07T02:35:19;16.60;;;8.80;;
72920;SDS011;61064;51.654;5.476;2023-05-07T02:37:44;16.45;;;9.70;;
72920;SDS011;61064;51.654;5.476;2023-05-07T02:40:09;17.30;;;9.47;;
72920;SDS011;61064;51.654;5.476;2023-05-07T02:42:36;17.70;;;10.30;;
72920;SDS011;61064;51.654;5.476;2023-05-07T02:45:01;17.00;;;10.03;;
72920;SDS011;61064;51.654;5.476;2023-05-07T02:47:26;15.13;;;9.80;;
72920;SDS011;61064;51.654;5.476;2023-05-07T02:49:53;17.77;;;9.95;;
72920;SDS011;61064;51.654;5.476;2023-05-07T02:52:19;16.75;;;10.40;;
72920;SDS011;61064;51.654;5.476;2023-05-07T02:54:44;16.23;;;9.77;;
72920;SDS011;61064;51.654;5.476;2023-05-07T02:57:10;18.67;;;10.17;;
72920;SDS011;61064;51.654;5.476;2023-05-07T02:59:35;18.37;;;10.63;;
72920;SDS011;61064;51.654;5.476;2023-05-07T03:02:00;18.53;;;11.33;;
72920;SDS011;61064;51.654;5.476;2023-05-07T03:04:26;19.43;;;10.93;;
72920;SDS011;61064;51.654;5.476;2023-05-07T03:06:51;17.30;;;11.23;;
72920;SDS011;61064;51.654;5.476;2023-05-07T03:09:16;17.73;;;10.95;;
72920;SDS011;61064;51.654;5.476;2023-05-07T03:11:42;17.87;;;10.90;;
72920;SDS011;61064;51.654;5.476;2023-05-07T03:14:07;19.13;;;11.63;;
72920;SDS011;61064;51.654;5.476;2023-05-07T03:16:32;20.93;;;12.23;;
72920;SDS011;61064;51.654;5.476;2023-05-07T03:18:58;19.57;;;11.37;;
72920;SDS011;61064;51.654;5.476;2023-05-07T03:21:23;18.10;;;11.93;;
72920;SDS011;61064;51.654;5.476;2023-05-07T03:23:48;19.77;;;11.80;;
72920;SDS011;61064;51.654;5.476;2023-05-07T03:26:14;21.20;;;12.50;;
72920;SDS011;61064;51.654;5.476;2023-05-07T03:28:39;19.00;;;12.30;;
72920;SDS011;61064;51.654;5.476;2023-05-07T03:31:05;21.27;;;12.97;;
72920;SDS011;61064;51.654;5.476;2023-05-07T03:33:32;19.33;;;12.27;;
72920;SDS011;61064;51.654;5.476;2023-05-07T03:35:58;18.37;;;12.27;;
72920;SDS011;61064;51.654;5.476;2023-05-07T03:38:24;20.10;;;12.03;;
72920;SDS011;61064;51.654;5.476;2023-05-07T03:40:49;21.98;;;12.23;;
72920;SDS011;61064;51.654;5.476;2023-05-07T03:43:14;22.70;;;13.23;;
72920;SDS011;61064;51.654;5.476;2023-05-07T03:45:40;19.47;;;12.67;;
72920;SDS011;61064;51.654;5.476;2023-05-07T03:48:05;20.73;;;12.90;;
72920;SDS011;61064;51.654;5.476;2023-05-07T03:50:30;20.97;;;13.10;;
72920;SDS011;61064;51.654;5.476;2023-05-07T03:52:56;20.47;;;12.77;;
72920;SDS011;61064;51.654;5.476;2023-05-07T03:55:21;20.52;;;13.30;;
72920;SDS011;61064;51.654;5.476;2023-05-07T03:57:46;23.93;;;13.67;;
72920;SDS011;61064;51.654;5.476;2023-05-07T04:00:12;22.73;;;13.70;;
72920;SDS011;61064;51.654;5.476;2023-05-07T04:02:38;21.17;;;13.23;;
72920;SDS011;61064;51.654;5.476;2023-05-07T04:05:03;23.87;;;13.87;;
72920;SDS011;61064;51.654;5.476;2023-05-07T04:07:29;20.07;;;13.73;;
72920;SDS011;61064;51.654;5.476;2023-05-07T04:09:54;23.47;;;14.70;;
72920;SDS011;61064;51.654;5.476;2023-05-07T04:12:20;20.38;;;13.90;;
72920;SDS011;61064;51.654;5.476;2023-05-07T04:14:45;21.47;;;13.73;;
72920;SDS011;61064;51.654;5.476;2023-05-07T04:17:10;22.90;;;14.03;;
72920;SDS011;61064;51.654;5.476;2023-05-07T04:19:35;20.37;;;14.17;;
72920;SDS011;61064;51.654;5.476;2023-05-07T04:22:01;22.23;;;14.73;;
72920;SDS011;61064;51.654;5.476;2023-05-07T04:24:26;23.70;;;14.70;;
72920;SDS011;61064;51.654;5.476;2023-05-07T04:26:51;21.73;;;14.43;;
72920;SDS011;61064;51.654;5.476;2023-05-07T04:29:17;22.00;;;15.05;;
72920;SDS011;61064;51.654;5.476;2023-05-07T04:31:43;23.83;;;14.80;;
72920;SDS011;61064;51.654;5.476;2023-05-07T04:34:09;23.23;;;14.95;;
72920;SDS011;61064;51.654;5.476;2023-05-07T04:36:36;23.20;;;14.98;;
72920;SDS011;61064;51.654;5.476;2023-05-07T04:39:02;22.88;;;15.30;;
72920;SDS011;61064;51.654;5.476;2023-05-07T04:41:27;27.53;;;15.97;;
72920;SDS011;61064;51.654;5.476;2023-05-07T04:43:53;25.70;;;16.20;;
72920;SDS011;61064;51.654;5.476;2023-05-07T04:46:18;28.90;;;17.07;;
72920;SDS011;61064;51.654;5.476;2023-05-07T04:48:43;27.90;;;17.43;;
72920;SDS011;61064;51.654;5.476;2023-05-07T04:51:09;24.98;;;16.77;;
72920;SDS011;61064;51.654;5.476;2023-05-07T04:53:34;24.93;;;16.70;;
72920;SDS011;61064;51.654;5.476;2023-05-07T04:56:00;25.77;;;16.30;;
72920;SDS011;61064;51.654;5.476;2023-05-07T04:58:25;25.90;;;16.97;;
72920;SDS011;61064;51.654;5.476;2023-05-07T05:00:50;27.47;;;17.60;;
72920;SDS011;61064;51.654;5.476;2023-05-07T05:03:16;26.88;;;17.27;;
72920;SDS011;61064;51.654;5.476;2023-05-07T05:05:42;27.73;;;17.20;;
72920;SDS011;61064;51.654;5.476;2023-05-07T05:08:07;26.30;;;17.70;;
72920;SDS011;61064;51.654;5.476;2023-05-07T05:10:32;28.10;;;17.92;;
72920;SDS011;61064;51.654;5.476;2023-05-07T05:12:58;28.10;;;18.07;;
72920;SDS011;61064;51.654;5.476;2023-05-07T05:15:23;26.17;;;18.20;;
72920;SDS011;61064;51.654;5.476;2023-05-07T05:17:48;30.73;;;18.53;;
72920;SDS011;61064;51.654;5.476;2023-05-07T05:20:13;26.07;;;17.77;;
72920;SDS011;61064;51.654;5.476;2023-05-07T05:22:39;27.47;;;18.33;;
72920;SDS011;61064;51.654;5.476;2023-05-07T05:25:06;28.85;;;19.45;;
72920;SDS011;61064;51.654;5.476;2023-05-07T05:27:32;30.17;;;19.57;;
72920;SDS011;61064;51.654;5.476;2023-05-07T05:29:57;32.37;;;19.97;;
72920;SDS011;61064;51.654;5.476;2023-05-07T05:32:22;30.63;;;20.20;;
72920;SDS011;61064;51.654;5.476;2023-05-07T05:34:47;31.73;;;21.03;;
72920;SDS011;61064;51.654;5.476;2023-05-07T05:37:13;30.10;;;20.93;;
72920;SDS011;61064;51.654;5.476;2023-05-07T05:39:38;32.23;;;21.20;;
72920;SDS011;61064;51.654;5.476;2023-05-07T05:42:04;29.23;;;20.70;;
72920;SDS011;61064;51.654;5.476;2023-05-07T05:44:29;31.42;;;21.23;;
72920;SDS011;61064;51.654;5.476;2023-05-07T05:46:54;32.23;;;21.80;;
72920;SDS011;61064;51.654;5.476;2023-05-07T05:49:22;30.52;;;21.30;;
72920;SDS011;61064;51.654;5.476;2023-05-07T05:51:47;30.83;;;21.13;;
72920;SDS011;61064;51.654;5.476;2023-05-07T05:54:15;31.80;;;22.43;;
72920;SDS011;61064;51.654;5.476;2023-05-07T05:56:41;31.85;;;22.60;;
72920;SDS011;61064;51.654;5.476;2023-05-07T05:59:07;31.10;;;21.77;;
72920;SDS011;61064;51.654;5.476;2023-05-07T06:01:32;31.80;;;22.25;;
72920;SDS011;61064;51.654;5.476;2023-05-07T06:03:58;31.50;;;21.93;;
72920;SDS011;61064;51.654;5.476;2023-05-07T06:06:23;30.87;;;21.57;;
72920;SDS011;61064;51.654;5.476;2023-05-07T06:08:49;32.77;;;21.07;;
72920;SDS011;61064;51.654;5.476;2023-05-07T06:11:14;34.97;;;21.00;;
72920;SDS011;61064;51.654;5.476;2023-05-07T06:13:40;30.00;;;20.97;;
72920;SDS011;61064;51.654;5.476;2023-05-07T06:16:05;32.77;;;21.97;;
72920;SDS011;61064;51.654;5.476;2023-05-07T06:18:31;32.00;;;21.48;;
72920;SDS011;61064;51.654;5.476;2023-05-07T06:20:56;32.10;;;20.97;;
72920;SDS011;61064;51.654;5.476;2023-05-07T06:23:22;30.33;;;20.33;;
72920;SDS011;61064;51.654;5.476;2023-05-07T06:25:50;28.33;;;19.92;;
72920;SDS011;61064;51.654;5.476;2023-05-07T06:28:16;29.50;;;19.57;;
72920;SDS011;61064;51.654;5.476;2023-05-07T06:30:42;28.83;;;20.65;;
72920;SDS011;61064;51.654;5.476;2023-05-07T06:33:07;28.43;;;20.43;;
72920;SDS011;61064;51.654;5.476;2023-05-07T06:35:32;30.17;;;19.60;;
72920;SDS011;61064;51.654;5.476;2023-05-07T06:37:58;29.87;;;20.27;;
72920;SDS011;61064;51.654;5.476;2023-05-07T06:40:23;27.17;;;18.85;;
72920;SDS011;61064;51.654;5.476;2023-05-07T06:42:48;26.27;;;18.40;;
72920;SDS011;61064;51.654;5.476;2023-05-07T06:45:14;30.03;;;19.60;;
72920;SDS011;61064;51.654;5.476;2023-05-07T06:47:39;26.90;;;18.70;;
72920;SDS011;61064;51.654;5.476;2023-05-07T06:50:05;26.23;;;18.07;;
72920;SDS011;61064;51.654;5.476;2023-05-07T06:52:31;28.23;;;19.50;;
72920;SDS011;61064;51.654;5.476;2023-05-07T06:54:56;28.37;;;18.13;;
72920;SDS011;61064;51.654;5.476;2023-05-07T06:57:22;25.33;;;18.47;;
72920;SDS011;61064;51.654;5.476;2023-05-07T06:59:47;26.30;;;18.27;;
72920;SDS011;61064;51.654;5.476;2023-05-07T07:02:12;29.87;;;19.27;;
72920;SDS011;61064;51.654;5.476;2023-05-07T07:04:38;26.57;;;17.70;;
72920;SDS011;61064;51.654;5.476;2023-05-07T07:07:03;25.87;;;18.17;;
72920;SDS011;61064;51.654;5.476;2023-05-07T07:09:28;25.50;;;18.70;;
72920;SDS011;61064;51.654;5.476;2023-05-07T07:11:54;24.80;;;17.90;;
72920;SDS011;61064;51.654;5.476;2023-05-07T07:14:19;27.90;;;18.00;;
72920;SDS011;61064;51.654;5.476;2023-05-07T07:16:45;24.52;;;18.70;;
72920;SDS011;61064;51.654;5.476;2023-05-07T07:19:11;27.30;;;17.80;;
72920;SDS011;61064;51.654;5.476;2023-05-07T07:21:37;26.67;;;17.77;;
72920;SDS011;61064;51.654;5.476;2023-05-07T07:24:02;25.47;;;17.33;;
72920;SDS011;61064;51.654;5.476;2023-05-07T07:26:28;25.55;;;17.95;;
72920;SDS011;61064;51.654;5.476;2023-05-07T07:28:53;24.97;;;17.27;;
72920;SDS011;61064;51.654;5.476;2023-05-07T07:31:18;26.87;;;17.70;;
72920;SDS011;61064;51.654;5.476;2023-05-07T07:33:44;24.73;;;16.83;;
72920;SDS011;61064;51.654;5.476;2023-05-07T07:36:09;23.83;;;17.13;;
72920;SDS011;61064;51.654;5.476;2023-05-07T07:38:34;22.13;;;16.50;;
72920;SDS011;61064;51.654;5.476;2023-05-07T07:41:00;22.38;;;16.23;;
72920;SDS011;61064;51.654;5.476;2023-05-07T07:43:26;22.27;;;15.32;;
72920;SDS011;61064;51.654;5.476;2023-05-07T07:45:52;22.33;;;16.13;;
72920;SDS011;61064;51.654;5.476;2023-05-07T07:48:18;25.00;;;16.08;;
72920;SDS011;61064;51.654;5.476;2023-05-07T07:50:43;24.27;;;15.83;;
72920;SDS011;61064;51.654;5.476;2023-05-07T07:53:08;22.97;;;15.80;;
72920;SDS011;61064;51.654;5.476;2023-05-07T07:55:37;23.30;;;16.33;;
72920;SDS011;61064;51.654;5.476;2023-05-07T07:58:04;20.88;;;14.90;;
72920;SDS011;61064;51.654;5.476;2023-05-07T08:00:30;22.47;;;15.60;;
72920;SDS011;61064;51.654;5.476;2023-05-07T08:02:55;20.63;;;15.32;;
72920;SDS011;61064;51.654;5.476;2023-05-07T08:05:20;19.93;;;14.10;;
72920;SDS011;61064;51.654;5.476;2023-05-07T08:07:46;20.97;;;14.43;;
72920;SDS011;61064;51.654;5.476;2023-05-07T08:10:16;21.48;;;14.77;;
72920;SDS011;61064;51.654;5.476;2023-05-07T08:12:46;21.00;;;14.48;;
72920;SDS011;61064;51.654;5.476;2023-05-07T08:15:12;20.93;;;13.97;;
72920;SDS011;61064;51.654;5.476;2023-05-07T08:17:37;20.27;;;14.67;;
72920;SDS011;61064;51.654;5.476;2023-05-07T08:20:03;19.80;;;13.97;;
72920;SDS011;61064;51.654;5.476;2023-05-07T08:22:29;22.83;;;14.67;;
72920;SDS011;61064;51.654;5.476;2023-05-07T08:24:54;22.33;;;13.30;;
72920;SDS011;61064;51.654;5.476;2023-05-07T08:27:19;19.85;;;13.18;;
72920;SDS011;61064;51.654;5.476;2023-05-07T08:29:45;20.23;;;14.30;;
72920;SDS011;61064;51.654;5.476;2023-05-07T08:32:12;19.80;;;14.02;;
72920;SDS011;61064;51.654;5.476;2023-05-07T08:34:37;17.70;;;12.87;;
72920;SDS011;61064;51.654;5.476;2023-05-07T08:37:03;20.90;;;14.03;;
72920;SDS011;61064;51.654;5.476;2023-05-07T08:39:29;18.27;;;12.65;;
72920;SDS011;61064;51.654;5.476;2023-05-07T08:41:55;18.83;;;13.60;;
72920;SDS011;61064;51.654;5.476;2023-05-07T08:44:23;17.92;;;13.18;;
72920;SDS011;61064;51.654;5.476;2023-05-07T08:46:52;18.67;;;12.70;;
72920;SDS011;61064;51.654;5.476;2023-05-07T08:49:20;19.42;;;12.57;;
72920;SDS011;61064;51.654;5.476;2023-05-07T08:51:46;15.70;;;11.55;;
72920;SDS011;61064;51.654;5.476;2023-05-07T08:54:12;17.00;;;12.20;;
72920;SDS011;61064;51.654;5.476;2023-05-07T08:56:41;16.08;;;11.57;;
72920;SDS011;61064;51.654;5.476;2023-05-07T08:59:06;16.07;;;11.20;;
72920;SDS011;61064;51.654;5.476;2023-05-07T09:01:32;17.93;;;11.73;;
72920;SDS011;61064;51.654;5.476;2023-05-07T09:03:57;19.90;;;11.77;;
72920;SDS011;61064;51.654;5.476;2023-05-07T09:06:23;17.37;;;11.83;;
72920;SDS011;61064;51.654;5.476;2023-05-07T09:08:49;15.23;;;10.97;;
72920;SDS011;61064;51.654;5.476;2023-05-07T09:11:22;16.10;;;11.73;;
72920;SDS011;61064;51.654;5.476;2023-05-07T09:13:48;17.67;;;11.73;;
72920;SDS011;61064;51.654;5.476;2023-05-07T09:16:15;16.13;;;11.40;;
72920;SDS011;61064;51.654;5.476;2023-05-07T09:18:41;17.27;;;11.57;;
72920;SDS011;61064;51.654;5.476;2023-05-07T09:21:10;15.00;;;10.85;;
72920;SDS011;61064;51.654;5.476;2023-05-07T09:23:37;17.60;;;11.38;;
72920;SDS011;61064;51.654;5.476;2023-05-07T09:26:02;19.70;;;11.70;;
72920;SDS011;61064;51.654;5.476;2023-05-07T09:28:29;16.27;;;11.90;;
72920;SDS011;61064;51.654;5.476;2023-05-07T09:30:54;16.77;;;12.03;;
72920;SDS011;61064;51.654;5.476;2023-05-07T09:33:20;17.33;;;12.32;;
72920;SDS011;61064;51.654;5.476;2023-05-07T09:35:45;16.70;;;12.63;;
72920;SDS011;61064;51.654;5.476;2023-05-07T09:38:11;17.73;;;12.30;;
72920;SDS011;61064;51.654;5.476;2023-05-07T09:40:37;15.55;;;12.02;;
72920;SDS011;61064;51.654;5.476;2023-05-07T09:43:12;16.73;;;11.77;;
72920;SDS011;61064;51.654;5.476;2023-05-07T09:45:38;18.45;;;11.57;;
72920;SDS011;61064;51.654;5.476;2023-05-07T09:48:05;17.20;;;11.63;;
72920;SDS011;61064;51.654;5.476;2023-05-07T09:50:44;16.33;;;10.90;;
72920;SDS011;61064;51.654;5.476;2023-05-07T09:53:13;15.20;;;10.55;;
72920;SDS011;61064;51.654;5.476;2023-05-07T09:55:39;14.32;;;10.07;;
72920;SDS011;61064;51.654;5.476;2023-05-07T09:58:05;16.02;;;9.80;;
72920;SDS011;61064;51.654;5.476;2023-05-07T10:00:32;15.93;;;10.07;;
72920;SDS011;61064;51.654;5.476;2023-05-07T10:02:57;14.33;;;9.33;;
72920;SDS011;61064;51.654;5.476;2023-05-07T10:05:23;15.95;;;10.20;;
72920;SDS011;61064;51.654;5.476;2023-05-07T10:07:50;13.95;;;10.00;;
72920;SDS011;61064;51.654;5.476;2023-05-07T10:10:17;14.55;;;9.70;;
72920;SDS011;61064;51.654;5.476;2023-05-07T10:12:43;15.40;;;9.60;;
72920;SDS011;61064;51.654;5.476;2023-05-07T10:15:10;13.88;;;9.65;;
72920;SDS011;61064;51.654;5.476;2023-05-07T10:17:39;16.33;;;9.82;;
72920;SDS011;61064;51.654;5.476;2023-05-07T10:20:07;15.88;;;11.07;;
72920;SDS011;61064;51.654;5.476;2023-05-07T10:22:51;16.10;;;10.47;;
72920;SDS011;61064;51.654;5.476;2023-05-07T10:25:21;16.42;;;11.20;;
72920;SDS011;61064;51.654;5.476;2023-05-07T10:27:50;15.88;;;10.68;;
72920;SDS011;61064;51.654;5.476;2023-05-07T10:33:09;17.02;;;11.05;;
72920;SDS011;61064;51.654;5.476;2023-05-07T10:35:40;16.00;;;10.57;;
72920;SDS011;61064;51.654;5.476;2023-05-07T10:38:07;16.35;;;10.60;;
72920;SDS011;61064;51.654;5.476;2023-05-07T10:40:34;15.00;;;9.82;;
72920;SDS011;61064;51.654;5.476;2023-05-07T10:43:00;16.37;;;10.27;;
72920;SDS011;61064;51.654;5.476;2023-05-07T10:45:29;14.77;;;9.10;;
72920;SDS011;61064;51.654;5.476;2023-05-07T10:50:34;16.57;;;9.03;;
72920;SDS011;61064;51.654;5.476;2023-05-07T10:55:50;14.50;;;8.90;;
72920;SDS011;61064;51.654;5.476;2023-05-07T10:58:40;14.77;;;9.00;;
72920;SDS011;61064;51.654;5.476;2023-05-07T11:01:06;13.38;;;9.40;;
72920;SDS011;61064;51.654;5.476;2023-05-07T11:03:31;12.87;;;8.77;;
72920;SDS011;61064;51.654;5.476;2023-05-07T11:06:13;14.03;;;8.73;;
72920;SDS011;61064;51.654;5.476;2023-05-07T11:08:59;16.30;;;9.00;;
72920;SDS011;61064;51.654;5.476;2023-05-07T11:17:08;14.23;;;9.23;;
72920;SDS011;61064;51.654;5.476;2023-05-07T11:19:50;13.70;;;8.95;;
72920;SDS011;61064;51.654;5.476;2023-05-07T11:22:54;14.73;;;8.90;;
72920;SDS011;61064;51.654;5.476;2023-05-07T11:25:19;14.38;;;9.20;;
72920;SDS011;61064;51.654;5.476;2023-05-07T11:27:46;14.98;;;9.05;;
72920;SDS011;61064;51.654;5.476;2023-05-07T11:30:18;13.93;;;9.43;;
72920;SDS011;61064;51.654;5.476;2023-05-07T11:32:47;14.30;;;9.50;;
72920;SDS011;61064;51.654;5.476;2023-05-07T11:35:13;12.55;;;8.52;;
72920;SDS011;61064;51.654;5.476;2023-05-07T11:37:40;12.77;;;8.40;;
72920;SDS011;61064;51.654;5.476;2023-05-07T11:40:07;12.50;;;8.55;;
72920;SDS011;61064;51.654;5.476;2023-05-07T11:42:38;14.27;;;8.30;;
72920;SDS011;61064;51.654;5.476;2023-05-07T11:45:06;12.55;;;7.78;;
72920;SDS011;61064;51.654;5.476;2023-05-07T11:47:35;14.93;;;8.63;;
72920;SDS011;61064;51.654;5.476;2023-05-07T11:50:10;12.00;;;7.93;;
72920;SDS011;61064;51.654;5.476;2023-05-07T11:52:37;12.88;;;7.80;;
72920;SDS011;61064;51.654;5.476;2023-05-07T11:55:04;13.83;;;8.50;;
72920;SDS011;61064;51.654;5.476;2023-05-07T11:57:37;11.85;;;7.88;;
72920;SDS011;61064;51.654;5.476;2023-05-07T12:00:06;15.50;;;8.50;;
72920;SDS011;61064;51.654;5.476;2023-05-07T12:02:35;14.38;;;8.55;;
72920;SDS011;61064;51.654;5.476;2023-05-07T12:05:01;13.13;;;8.07;;
72920;SDS011;61064;51.654;5.476;2023-05-07T12:07:27;13.05;;;8.40;;
72920;SDS011;61064;51.654;5.476;2023-05-07T12:09:53;14.93;;;9.13;;
72920;SDS011;61064;51.654;5.476;2023-05-07T12:12:19;11.60;;;7.47;;
72920;SDS011;61064;51.654;5.476;2023-05-07T12:14:45;13.77;;;7.80;;
72920;SDS011;61064;51.654;5.476;2023-05-07T12:17:12;12.32;;;8.00;;
72920;SDS011;61064;51.654;5.476;2023-05-07T12:19:39;15.03;;;8.10;;
72920;SDS011;61064;51.654;5.476;2023-05-07T12:22:09;12.40;;;8.05;;
72920;SDS011;61064;51.654;5.476;2023-05-07T12:24:55;12.40;;;7.15;;
72920;SDS011;61064;51.654;5.476;2023-05-07T12:27:22;12.52;;;7.32;;
72920;SDS011;61064;51.654;5.476;2023-05-07T12:29:50;12.57;;;6.45;;
72920;SDS011;61064;51.654;5.476;2023-05-07T12:32:16;12.93;;;7.00;;
72920;SDS011;61064;51.654;5.476;2023-05-07T12:34:45;12.45;;;7.38;;
72920;SDS011;61064;51.654;5.476;2023-05-07T12:37:11;11.70;;;6.97;;
72920;SDS011;61064;51.654;5.476;2023-05-07T12:39:49;14.03;;;7.10;;
72920;SDS011;61064;51.654;5.476;2023-05-07T12:42:33;12.98;;;6.38;;
72920;SDS011;61064;51.654;5.476;2023-05-07T12:45:12;12.50;;;6.32;;
72920;SDS011;61064;51.654;5.476;2023-05-07T12:47:43;11.75;;;7.05;;
72920;SDS011;61064;51.654;5.476;2023-05-07T12:50:11;12.30;;;7.10;;
72920;SDS011;61064;51.654;5.476;2023-05-07T12:52:40;10.87;;;6.60;;
72920;SDS011;61064;51.654;5.476;2023-05-07T12:55:08;10.65;;;6.22;;
72920;SDS011;61064;51.654;5.476;2023-05-07T12:57:38;11.55;;;5.90;;
72920;SDS011;61064;51.654;5.476;2023-05-07T13:00:05;9.68;;;5.70;;
72920;SDS011;61064;51.654;5.476;2023-05-07T13:02:40;10.70;;;5.77;;
72920;SDS011;61064;51.654;5.476;2023-05-07T13:05:09;12.18;;;5.70;;
72920;SDS011;61064;51.654;5.476;2023-05-07T13:07:35;10.38;;;5.10;;
72920;SDS011;61064;51.654;5.476;2023-05-07T13:10:02;11.32;;;5.57;;
72920;SDS011;61064;51.654;5.476;2023-05-07T13:12:30;10.63;;;5.83;;
72920;SDS011;61064;51.654;5.476;2023-05-07T13:14:56;11.45;;;5.35;;
72920;SDS011;61064;51.654;5.476;2023-05-07T13:17:21;10.73;;;5.40;;
72920;SDS011;61064;51.654;5.476;2023-05-07T13:19:46;11.17;;;5.10;;
72920;SDS011;61064;51.654;5.476;2023-05-07T13:22:12;9.27;;;4.83;;
72920;SDS011;61064;51.654;5.476;2023-05-07T13:24:37;10.60;;;4.93;;
72920;SDS011;61064;51.654;5.476;2023-05-07T13:27:03;10.23;;;5.05;;
72920;SDS011;61064;51.654;5.476;2023-05-07T13:29:28;11.60;;;4.70;;
72920;SDS011;61064;51.654;5.476;2023-05-07T13:31:58;6.67;;;2.80;;
72920;SDS011;61064;51.654;5.476;2023-05-07T13:34:23;8.60;;;2.83;;
72920;SDS011;61064;51.654;5.476;2023-05-07T13:36:49;7.20;;;2.73;;
72920;SDS011;61064;51.654;5.476;2023-05-07T13:39:15;7.57;;;3.50;;
72920;SDS011;61064;51.654;5.476;2023-05-07T13:41:40;9.40;;;4.13;;
72920;SDS011;61064;51.654;5.476;2023-05-07T13:44:05;9.63;;;4.40;;
72920;SDS011;61064;51.654;5.476;2023-05-07T13:46:31;9.17;;;4.33;;
72920;SDS011;61064;51.654;5.476;2023-05-07T13:48:56;8.18;;;4.45;;
72920;SDS011;61064;51.654;5.476;2023-05-07T13:51:22;13.47;;;5.43;;
72920;SDS011;61064;51.654;5.476;2023-05-07T13:53:47;12.67;;;6.83;;
72920;SDS011;61064;51.654;5.476;2023-05-07T13:56:12;12.50;;;7.20;;
72920;SDS011;61064;51.654;5.476;2023-05-07T13:58:39;14.80;;;7.68;;
72920;SDS011;61064;51.654;5.476;2023-05-07T14:01:04;17.33;;;6.63;;
72920;SDS011;61064;51.654;5.476;2023-05-07T14:03:30;16.50;;;6.00;;
72920;SDS011;61064;51.654;5.476;2023-05-07T14:05:56;16.75;;;9.57;;
72920;SDS011;61064;51.654;5.476;2023-05-07T14:08:22;20.83;;;8.07;;
72920;SDS011;61064;51.654;5.476;2023-05-07T14:10:48;13.70;;;6.15;;
72920;SDS011;61064;51.654;5.476;2023-05-07T14:13:13;11.13;;;5.93;;
72920;SDS011;61064;51.654;5.476;2023-05-07T14:15:38;11.80;;;5.90;;
72920;SDS011;61064;51.654;5.476;2023-05-07T14:18:05;12.45;;;6.28;;
72920;SDS011;61064;51.654;5.476;2023-05-07T14:20:30;10.60;;;6.33;;
72920;SDS011;61064;51.654;5.476;2023-05-07T14:22:56;11.10;;;7.00;;
72920;SDS011;61064;51.654;5.476;2023-05-07T14:25:21;12.80;;;7.47;;
72920;SDS011;61064;51.654;5.476;2023-05-07T14:27:47;13.43;;;7.80;;
72920;SDS011;61064;51.654;5.476;2023-05-07T14:30:12;14.23;;;6.90;;
72920;SDS011;61064;51.654;5.476;2023-05-07T14:32:38;13.63;;;6.50;;
72920;SDS011;61064;51.654;5.476;2023-05-07T14:35:03;10.83;;;6.40;;
72920;SDS011;61064;51.654;5.476;2023-05-07T14:37:29;14.25;;;7.15;;
72920;SDS011;61064;51.654;5.476;2023-05-07T14:39:54;13.63;;;7.30;;